createdAt,value
2017-09-09T00:00:01.096Z,932.34
2017-09-09T00:00:29.274Z,932.31
2017-09-09T00:00:57.251Z,932.32
2017-09-09T00:01:25.219Z,932.33
2017-09-09T00:01:53.265Z,932.31
2017-09-09T00:02:21.447Z,932.32
2017-09-09T00:02:49.670Z,932.34
2017-09-09T00:03:17.721Z,932.37
2017-09-09T00:03:45.894Z,932.33
2017-09-09T00:04:13.937Z,932.35
2017-09-09T00:04:41.921Z,932.36
2017-09-09T00:05:10.038Z,932.35
2017-09-09T00:05:38.057Z,932.39
2017-09-09T00:06:05.958Z,932.35
2017-09-09T00:06:33.907Z,932.33
2017-09-09T00:07:01.892Z,932.37
2017-09-09T00:07:29.938Z,932.35
2017-09-09T00:07:58.079Z,932.37
2017-09-09T00:08:26.043Z,932.37
2017-09-09T00:08:53.890Z,932.37
2017-09-09T00:09:21.920Z,932.42
2017-09-09T00:09:49.964Z,932.38
2017-09-09T00:10:17.952Z,932.41
2017-09-09T00:10:45.779Z,932.37
2017-09-09T00:11:13.835Z,932.41
2017-09-09T00:11:41.957Z,932.47
2017-09-09T00:12:10.088Z,932.44
2017-09-09T00:12:38.474Z,932.43
2017-09-09T00:13:06.612Z,932.43
2017-09-09T00:13:34.726Z,932.44
2017-09-09T00:14:02.753Z,932.5
2017-09-09T00:14:30.811Z,932.47
2017-09-09T00:14:58.974Z,932.49
2017-09-09T00:15:27.191Z,932.51
2017-09-09T00:15:55.259Z,932.52
2017-09-09T00:16:23.237Z,932.47
2017-09-09T00:16:51.289Z,932.5
2017-09-09T00:17:19.256Z,932.49
2017-09-09T00:17:47.382Z,932.5
2017-09-09T00:18:15.402Z,932.51
2017-09-09T00:18:43.550Z,932.51
2017-09-09T00:19:11.596Z,932.51
2017-09-09T00:19:39.706Z,932.49
2017-09-09T00:20:07.927Z,932.5
2017-09-09T00:20:36.090Z,932.49
2017-09-09T00:21:04.099Z,932.49
2017-09-09T00:21:32.240Z,932.49
2017-09-09T00:22:00.374Z,932.5
2017-09-09T00:22:28.560Z,932.51
2017-09-09T00:22:56.567Z,932.51
2017-09-09T00:23:24.631Z,932.51
2017-09-09T00:23:52.690Z,932.52
2017-09-09T00:24:20.751Z,932.51
2017-09-09T00:24:48.884Z,932.51
2017-09-09T00:25:16.846Z,932.52
2017-09-09T00:25:45.001Z,932.52
2017-09-09T00:26:13.052Z,932.52
2017-09-09T00:26:41.216Z,932.5
2017-09-09T00:27:09.282Z,932.5
2017-09-09T00:27:37.440Z,932.51
2017-09-09T00:28:05.688Z,932.51
2017-09-09T00:28:33.743Z,932.54
2017-09-09T00:29:01.762Z,932.5
2017-09-09T00:29:29.795Z,932.49
2017-09-09T00:29:57.995Z,932.52
2017-09-09T00:30:26.087Z,932.53
2017-09-09T00:30:54.104Z,932.57
2017-09-09T00:31:22.162Z,932.55
2017-09-09T00:31:50.186Z,932.58
2017-09-09T00:32:18.352Z,932.56
2017-09-09T00:32:46.354Z,932.56
2017-09-09T00:33:14.593Z,932.55
2017-09-09T00:33:42.741Z,932.6
2017-09-09T00:34:10.902Z,932.6
2017-09-09T00:34:38.974Z,932.59
2017-09-09T00:35:06.849Z,932.55
2017-09-09T00:35:34.759Z,932.6
2017-09-09T00:36:02.790Z,932.6
2017-09-09T00:36:30.758Z,932.6
2017-09-09T00:36:58.919Z,932.61
2017-09-09T00:37:26.879Z,932.61
2017-09-09T00:37:55.151Z,932.59
2017-09-09T00:38:23.099Z,932.6
2017-09-09T00:38:51.165Z,932.62
2017-09-09T00:39:19.226Z,932.62
2017-09-09T00:39:47.303Z,932.6
2017-09-09T00:40:15.457Z,932.63
2017-09-09T00:40:43.418Z,932.62
2017-09-09T00:41:11.558Z,932.61
2017-09-09T00:41:39.616Z,932.64
2017-09-09T00:42:07.577Z,932.65
2017-09-09T00:42:35.583Z,932.67
2017-09-09T00:43:03.962Z,932.66
2017-09-09T00:43:32.099Z,932.67
2017-09-09T00:44:00.124Z,932.62
2017-09-09T00:44:27.937Z,932.65
2017-09-09T00:44:55.941Z,932.68
2017-09-09T00:45:24.125Z,932.68
2017-09-09T00:45:52.090Z,932.69
2017-09-09T00:46:20.028Z,932.69
2017-09-09T00:46:48.203Z,932.67
2017-09-09T00:47:16.340Z,932.7
2017-09-09T00:47:44.368Z,932.68
2017-09-09T00:48:12.477Z,932.68
2017-09-09T00:48:40.496Z,932.71
2017-09-09T00:49:08.519Z,932.68
2017-09-09T00:49:36.543Z,932.7
2017-09-09T00:50:04.586Z,932.71
2017-09-09T00:50:32.733Z,932.73
2017-09-09T00:51:00.786Z,932.74
2017-09-09T00:51:28.930Z,932.73
2017-09-09T00:51:57.066Z,932.72
2017-09-09T00:52:25.150Z,932.74
2017-09-09T00:52:53.292Z,932.76
2017-09-09T00:53:21.443Z,932.75
2017-09-09T00:53:49.453Z,932.73
2017-09-09T00:54:17.527Z,932.77
2017-09-09T00:54:45.590Z,932.74
2017-09-09T00:55:13.659Z,932.74
2017-09-09T00:55:41.742Z,932.78
2017-09-09T00:56:09.786Z,932.76
2017-09-09T00:56:37.870Z,932.75
2017-09-09T00:57:05.882Z,932.75
2017-09-09T00:57:33.854Z,932.75
2017-09-09T00:58:01.764Z,932.76
2017-09-09T00:58:30.006Z,932.76
2017-09-09T00:58:58.047Z,932.75
2017-09-09T00:59:26.010Z,932.77
2017-09-09T00:59:54.127Z,932.76
2017-09-09T01:00:22.209Z,932.79
2017-09-09T01:00:50.378Z,932.78
2017-09-09T01:01:18.424Z,932.77
2017-09-09T01:01:46.572Z,932.76
2017-09-09T01:02:14.637Z,932.77
2017-09-09T01:02:42.671Z,932.79
2017-09-09T01:03:10.882Z,932.77
2017-09-09T01:03:38.873Z,932.76
2017-09-09T01:04:06.790Z,932.75
2017-09-09T01:04:34.617Z,932.75
2017-09-09T01:05:02.667Z,932.78
2017-09-09T01:05:30.513Z,932.78
2017-09-09T01:05:58.576Z,932.76
2017-09-09T01:06:26.627Z,932.76
2017-09-09T01:06:54.755Z,932.7
2017-09-09T01:07:22.894Z,932.76
2017-09-09T01:07:50.860Z,932.73
2017-09-09T01:08:19.090Z,932.75
2017-09-09T01:08:47.273Z,932.75
2017-09-09T01:09:15.317Z,932.74
2017-09-09T01:09:43.455Z,932.77
2017-09-09T01:10:11.529Z,932.76
2017-09-09T01:10:39.660Z,932.77
2017-09-09T01:11:07.560Z,932.77
2017-09-09T01:11:35.695Z,932.77
2017-09-09T01:12:03.742Z,932.76
2017-09-09T01:12:31.837Z,932.78
2017-09-09T01:12:59.923Z,932.76
2017-09-09T01:13:28.201Z,932.76
2017-09-09T01:13:56.341Z,932.76
2017-09-09T01:14:24.164Z,932.78
2017-09-09T01:14:52.330Z,932.78
2017-09-09T01:15:20.383Z,932.77
2017-09-09T01:15:48.232Z,932.82
2017-09-09T01:16:16.175Z,932.81
2017-09-09T01:16:44.233Z,932.8
2017-09-09T01:17:12.258Z,932.81
2017-09-09T01:17:40.194Z,932.81
2017-09-09T01:18:08.065Z,932.79
2017-09-09T01:18:36.093Z,932.79
2017-09-09T01:19:04.038Z,932.8
2017-09-09T01:19:32.189Z,932.83
2017-09-09T01:20:00.298Z,932.83
2017-09-09T01:20:28.375Z,932.82
2017-09-09T01:20:56.534Z,932.82
2017-09-09T01:21:24.676Z,932.84
2017-09-09T01:21:52.846Z,932.84
2017-09-09T01:22:21.008Z,932.8
2017-09-09T01:22:49.157Z,932.81
2017-09-09T01:23:17.260Z,932.84
2017-09-09T01:23:45.317Z,932.8
2017-09-09T01:24:13.368Z,932.82
2017-09-09T01:24:41.550Z,932.81
2017-09-09T01:25:09.538Z,932.81
2017-09-09T01:25:37.702Z,932.79
2017-09-09T01:26:05.637Z,932.8
2017-09-09T01:26:33.776Z,932.78
2017-09-09T01:27:01.817Z,932.78
2017-09-09T01:27:29.848Z,932.77
2017-09-09T01:27:57.885Z,932.79
2017-09-09T01:28:26.025Z,932.78
2017-09-09T01:28:54.069Z,932.78
2017-09-09T01:29:22.220Z,932.77
2017-09-09T01:29:50.359Z,932.76
2017-09-09T01:30:18.489Z,932.74
2017-09-09T01:30:46.658Z,932.78
2017-09-09T01:31:14.609Z,932.76
2017-09-09T01:31:42.689Z,932.75
2017-09-09T01:32:10.832Z,932.75
2017-09-09T01:32:38.872Z,932.73
2017-09-09T01:33:06.920Z,932.73
2017-09-09T01:33:35.159Z,932.72
2017-09-09T01:34:03.188Z,932.75
2017-09-09T01:34:31.314Z,932.75
2017-09-09T01:34:59.316Z,932.74
2017-09-09T01:35:27.350Z,932.73
2017-09-09T01:35:55.472Z,932.76
2017-09-09T01:36:23.474Z,932.75
2017-09-09T01:36:51.521Z,932.72
2017-09-09T01:37:19.439Z,932.75
2017-09-09T01:37:47.635Z,932.76
2017-09-09T01:38:15.689Z,932.78
2017-09-09T01:38:43.931Z,932.72
2017-09-09T01:39:11.886Z,932.75
2017-09-09T01:39:39.944Z,932.73
2017-09-09T01:40:07.960Z,932.75
2017-09-09T01:40:36.119Z,932.74
2017-09-09T01:41:04.254Z,932.69
2017-09-09T01:41:32.319Z,932.71
2017-09-09T01:42:00.464Z,932.71
2017-09-09T01:42:28.559Z,932.72
2017-09-09T01:42:56.693Z,932.7
2017-09-09T01:43:24.872Z,932.7
2017-09-09T01:43:53.053Z,932.68
2017-09-09T01:44:21.094Z,932.71
2017-09-09T01:44:49.243Z,932.68
2017-09-09T01:45:17.427Z,932.67
2017-09-09T01:45:45.522Z,932.65
2017-09-09T01:46:13.553Z,932.66
2017-09-09T01:46:41.713Z,932.67
2017-09-09T01:47:09.861Z,932.69
2017-09-09T01:47:37.943Z,932.66
2017-09-09T01:48:06.104Z,932.67
2017-09-09T01:48:34.256Z,932.64
2017-09-09T01:49:02.388Z,932.67
2017-09-09T01:49:30.398Z,932.69
2017-09-09T01:49:58.468Z,932.69
2017-09-09T01:50:26.597Z,932.67
2017-09-09T01:50:54.751Z,932.66
2017-09-09T01:51:22.906Z,932.64
2017-09-09T01:51:50.849Z,932.67
2017-09-09T01:52:18.887Z,932.67
2017-09-09T01:52:46.946Z,932.67
2017-09-09T01:53:14.885Z,932.68
2017-09-09T01:53:43.065Z,932.68
2017-09-09T01:54:11.196Z,932.68
2017-09-09T01:54:39.130Z,932.67
2017-09-09T01:55:06.955Z,932.66
2017-09-09T01:55:35.109Z,932.66
2017-09-09T01:56:03.094Z,932.65
2017-09-09T01:56:31.033Z,932.66
2017-09-09T01:56:59.010Z,932.63
2017-09-09T01:57:27.138Z,932.64
2017-09-09T01:57:55.314Z,932.62
2017-09-09T01:58:23.322Z,932.65
2017-09-09T01:58:51.480Z,932.63
2017-09-09T01:59:19.600Z,932.63
2017-09-09T01:59:47.530Z,932.61
2017-09-09T02:00:15.517Z,932.61
2017-09-09T02:00:43.488Z,932.61
2017-09-09T02:01:11.608Z,932.65
2017-09-09T02:01:39.661Z,932.62
2017-09-09T02:02:07.825Z,932.62
2017-09-09T02:02:35.868Z,932.62
2017-09-09T02:03:03.928Z,932.59
2017-09-09T02:03:31.944Z,932.62
2017-09-09T02:04:00.187Z,932.6
2017-09-09T02:04:28.225Z,932.64
2017-09-09T02:04:56.372Z,932.62
2017-09-09T02:05:24.334Z,932.63
2017-09-09T02:05:52.360Z,932.58
2017-09-09T02:06:20.447Z,932.57
2017-09-09T02:06:48.575Z,932.64
2017-09-09T02:07:16.697Z,932.59
2017-09-09T02:07:44.619Z,932.56
2017-09-09T02:08:12.700Z,932.56
2017-09-09T02:08:40.869Z,932.57
2017-09-09T02:09:09.122Z,932.6
2017-09-09T02:09:37.096Z,932.55
2017-09-09T02:10:05.290Z,932.59
2017-09-09T02:10:33.395Z,932.57
2017-09-09T02:11:01.491Z,932.62
2017-09-09T02:11:29.670Z,932.58
2017-09-09T02:11:57.619Z,932.58
2017-09-09T02:12:25.761Z,932.61
2017-09-09T02:12:53.897Z,932.59
2017-09-09T02:13:21.793Z,932.56
2017-09-09T02:13:49.953Z,932.55
2017-09-09T02:14:18.138Z,932.59
2017-09-09T02:14:46.292Z,932.55
2017-09-09T02:15:14.481Z,932.57
2017-09-09T02:15:42.526Z,932.56
2017-09-09T02:16:10.680Z,932.53
2017-09-09T02:16:38.771Z,932.57
2017-09-09T02:17:06.927Z,932.55
2017-09-09T02:17:35.118Z,932.55
2017-09-09T02:18:03.233Z,932.59
2017-09-09T02:18:31.392Z,932.58
2017-09-09T02:18:59.465Z,932.55
2017-09-09T02:19:27.428Z,932.56
2017-09-09T02:19:55.480Z,932.59
2017-09-09T02:20:23.385Z,932.54
2017-09-09T02:20:51.375Z,932.57
2017-09-09T02:21:19.385Z,932.57
2017-09-09T02:21:47.586Z,932.57
2017-09-09T02:22:15.612Z,932.57
2017-09-09T02:22:43.737Z,932.55
2017-09-09T02:23:11.833Z,932.56
2017-09-09T02:23:40.003Z,932.59
2017-09-09T02:24:08.268Z,932.59
2017-09-09T02:24:36.475Z,932.57
2017-09-09T02:25:04.637Z,932.58
2017-09-09T02:25:32.738Z,932.57
2017-09-09T02:26:00.799Z,932.56
2017-09-09T02:26:28.747Z,932.57
2017-09-09T02:26:56.786Z,932.58
2017-09-09T02:27:24.960Z,932.57
2017-09-09T02:27:52.797Z,932.57
2017-09-09T02:28:20.909Z,932.57
2017-09-09T02:28:48.933Z,932.57
2017-09-09T02:29:16.978Z,932.57
2017-09-09T02:29:44.905Z,932.57
2017-09-09T02:30:12.805Z,932.54
2017-09-09T02:30:40.996Z,932.56
2017-09-09T02:31:08.914Z,932.57
2017-09-09T02:31:36.726Z,932.54
2017-09-09T02:32:04.636Z,932.55
2017-09-09T02:32:32.767Z,932.54
2017-09-09T02:33:00.893Z,932.58
2017-09-09T02:33:28.878Z,932.57
2017-09-09T02:33:56.780Z,932.57
2017-09-09T02:34:25.025Z,932.55
2017-09-09T02:34:53.190Z,932.55
2017-09-09T02:35:21.133Z,932.55
2017-09-09T02:35:49.173Z,932.54
2017-09-09T02:36:17.191Z,932.55
2017-09-09T02:36:45.181Z,932.56
2017-09-09T02:37:13.327Z,932.54
2017-09-09T02:37:41.505Z,932.55
2017-09-09T02:38:09.645Z,932.56
2017-09-09T02:38:37.822Z,932.58
2017-09-09T02:39:05.609Z,932.57
2017-09-09T02:39:33.834Z,932.56
2017-09-09T02:40:01.863Z,932.54
2017-09-09T02:40:29.926Z,932.55
2017-09-09T02:40:58.002Z,932.58
2017-09-09T02:41:26.175Z,932.56
2017-09-09T02:41:54.144Z,932.55
2017-09-09T02:42:22.146Z,932.55
2017-09-09T02:42:50.359Z,932.55
2017-09-09T02:43:18.506Z,932.57
2017-09-09T02:43:46.649Z,932.59
2017-09-09T02:44:14.945Z,932.58
2017-09-09T02:44:43.041Z,932.61
2017-09-09T02:45:11.051Z,932.56
2017-09-09T02:45:39.221Z,932.57
2017-09-09T02:46:07.323Z,932.57
2017-09-09T02:46:35.403Z,932.57
2017-09-09T02:47:03.444Z,932.57
2017-09-09T02:47:31.480Z,932.61
2017-09-09T02:47:59.500Z,932.59
2017-09-09T02:48:27.467Z,932.58
2017-09-09T02:48:55.538Z,932.59
2017-09-09T02:49:23.676Z,932.61
2017-09-09T02:49:51.682Z,932.61
2017-09-09T02:50:19.933Z,932.6
2017-09-09T02:50:48.014Z,932.57
2017-09-09T02:51:16.112Z,932.61
2017-09-09T02:51:43.989Z,932.56
2017-09-09T02:52:11.899Z,932.57
2017-09-09T02:52:39.960Z,932.59
2017-09-09T02:53:08.117Z,932.59
2017-09-09T02:53:36.136Z,932.55
2017-09-09T02:54:04.096Z,932.59
2017-09-09T02:54:32.422Z,932.57
2017-09-09T02:55:00.539Z,932.57
2017-09-09T02:55:28.733Z,932.56
2017-09-09T02:55:56.786Z,932.57
2017-09-09T02:56:24.984Z,932.53
2017-09-09T02:56:53.114Z,932.57
2017-09-09T02:57:21.286Z,932.56
2017-09-09T02:57:49.432Z,932.56
2017-09-09T02:58:17.602Z,932.57
2017-09-09T02:58:45.641Z,932.57
2017-09-09T02:59:13.756Z,932.57
2017-09-09T02:59:41.919Z,932.57
2017-09-09T03:00:09.805Z,932.53
2017-09-09T03:00:37.832Z,932.57
2017-09-09T03:01:05.768Z,932.58
2017-09-09T03:01:33.740Z,932.55
2017-09-09T03:02:01.783Z,932.56
2017-09-09T03:02:29.857Z,932.61
2017-09-09T03:02:57.927Z,932.53
2017-09-09T03:03:25.906Z,932.56
2017-09-09T03:03:54.050Z,932.6
2017-09-09T03:04:22.122Z,932.57
2017-09-09T03:04:50.194Z,932.63
2017-09-09T03:05:18.398Z,932.59
2017-09-09T03:05:46.560Z,932.55
2017-09-09T03:06:14.682Z,932.56
2017-09-09T03:06:42.709Z,932.55
2017-09-09T03:07:10.631Z,932.57
2017-09-09T03:07:38.590Z,932.61
2017-09-09T03:08:06.762Z,932.55
2017-09-09T03:08:34.843Z,932.59
2017-09-09T03:09:02.764Z,932.57
2017-09-09T03:09:31.048Z,932.57
2017-09-09T03:09:58.954Z,932.57
2017-09-09T03:10:26.836Z,932.58
2017-09-09T03:10:54.980Z,932.57
2017-09-09T03:11:23.001Z,932.59
2017-09-09T03:11:51.114Z,932.58
2017-09-09T03:12:19.240Z,932.55
2017-09-09T03:12:47.053Z,932.57
2017-09-09T03:13:15.162Z,932.55
2017-09-09T03:13:43.370Z,932.58
2017-09-09T03:14:11.401Z,932.57
2017-09-09T03:14:39.549Z,932.56
2017-09-09T03:15:07.673Z,932.58
2017-09-09T03:15:35.819Z,932.56
2017-09-09T03:16:03.779Z,932.59
2017-09-09T03:16:31.854Z,932.59
2017-09-09T03:16:59.834Z,932.62
2017-09-09T03:17:28.002Z,932.59
2017-09-09T03:17:56.058Z,932.6
2017-09-09T03:18:24.167Z,932.57
2017-09-09T03:18:52.122Z,932.56
2017-09-09T03:19:20.063Z,932.54
2017-09-09T03:19:48.195Z,932.54
2017-09-09T03:20:16.223Z,932.6
2017-09-09T03:20:44.406Z,932.58
2017-09-09T03:21:12.344Z,932.55
2017-09-09T03:21:40.248Z,932.55
2017-09-09T03:22:08.294Z,932.59
2017-09-09T03:22:36.446Z,932.58
2017-09-09T03:23:04.487Z,932.56
2017-09-09T03:23:32.632Z,932.55
2017-09-09T03:24:00.807Z,932.56
2017-09-09T03:24:28.862Z,932.55
2017-09-09T03:24:57.018Z,932.53
2017-09-09T03:25:25.173Z,932.55
2017-09-09T03:25:53.333Z,932.53
2017-09-09T03:26:21.462Z,932.52
2017-09-09T03:26:49.285Z,932.51
2017-09-09T03:27:17.315Z,932.52
2017-09-09T03:27:45.251Z,932.52
2017-09-09T03:28:13.261Z,932.52
2017-09-09T03:28:41.414Z,932.52
2017-09-09T03:29:09.430Z,932.49
2017-09-09T03:29:37.451Z,932.51
2017-09-09T03:30:05.662Z,932.53
2017-09-09T03:30:33.715Z,932.49
2017-09-09T03:31:01.642Z,932.49
2017-09-09T03:31:29.612Z,932.5
2017-09-09T03:31:57.615Z,932.48
2017-09-09T03:32:25.733Z,932.49
2017-09-09T03:32:53.888Z,932.48
2017-09-09T03:33:22.078Z,932.46
2017-09-09T03:33:50.120Z,932.44
2017-09-09T03:34:18.248Z,932.46
2017-09-09T03:34:46.648Z,932.46
2017-09-09T03:35:14.765Z,932.46
2017-09-09T03:35:42.885Z,932.46
2017-09-09T03:36:10.916Z,932.45
2017-09-09T03:36:39.086Z,932.43
2017-09-09T03:37:07.215Z,932.41
2017-09-09T03:37:35.115Z,932.43
2017-09-09T03:38:03.166Z,932.43
2017-09-09T03:38:31.222Z,932.42
2017-09-09T03:38:59.365Z,932.43
2017-09-09T03:39:27.534Z,932.42
2017-09-09T03:39:55.627Z,932.43
2017-09-09T03:40:23.756Z,932.39
2017-09-09T03:40:51.828Z,932.39
2017-09-09T03:41:20.022Z,932.43
2017-09-09T03:41:48.068Z,932.39
2017-09-09T03:42:15.991Z,932.38
2017-09-09T03:42:44.108Z,932.37
2017-09-09T03:43:12.162Z,932.36
2017-09-09T03:43:40.325Z,932.34
2017-09-09T03:44:08.390Z,932.33
2017-09-09T03:44:36.553Z,932.38
2017-09-09T03:45:04.685Z,932.37
2017-09-09T03:45:32.762Z,932.34
2017-09-09T03:46:00.940Z,932.35
2017-09-09T03:46:29.148Z,932.33
2017-09-09T03:46:57.094Z,932.32
2017-09-09T03:47:24.926Z,932.31
2017-09-09T03:47:53.065Z,932.34
2017-09-09T03:48:21.095Z,932.33
2017-09-09T03:48:49.063Z,932.31
2017-09-09T03:49:17.253Z,932.31
2017-09-09T03:49:45.279Z,932.29
2017-09-09T03:50:13.514Z,932.31
2017-09-09T03:50:41.547Z,932.31
2017-09-09T03:51:09.582Z,932.31
2017-09-09T03:51:37.647Z,932.34
2017-09-09T03:52:05.757Z,932.3
2017-09-09T03:52:33.925Z,932.34
2017-09-09T03:53:02.073Z,932.31
2017-09-09T03:53:30.233Z,932.32
2017-09-09T03:53:58.167Z,932.31
2017-09-09T03:54:26.165Z,932.31
2017-09-09T03:54:54.130Z,932.32
2017-09-09T03:55:22.397Z,932.31
2017-09-09T03:55:50.245Z,932.28
2017-09-09T03:56:18.413Z,932.26
2017-09-09T03:56:46.483Z,932.28
2017-09-09T03:57:14.652Z,932.24
2017-09-09T03:57:42.774Z,932.28
2017-09-09T03:58:10.894Z,932.27
2017-09-09T03:58:39.044Z,932.25
2017-09-09T03:59:07.263Z,932.26
2017-09-09T03:59:35.114Z,932.26
2017-09-09T04:00:03.265Z,932.25
2017-09-09T04:00:31.282Z,932.25
2017-09-09T04:00:59.475Z,932.25
2017-09-09T04:01:27.611Z,932.25
2017-09-09T04:01:55.682Z,932.22
2017-09-09T04:02:23.618Z,932.24
2017-09-09T04:02:51.743Z,932.2
2017-09-09T04:03:19.807Z,932.21
2017-09-09T04:03:47.868Z,932.23
2017-09-09T04:04:16.007Z,932.2
2017-09-09T04:04:44.133Z,932.16
2017-09-09T04:05:12.364Z,932.17
2017-09-09T04:05:40.311Z,932.16
2017-09-09T04:06:08.362Z,932.14
2017-09-09T04:06:36.437Z,932.14
2017-09-09T04:07:04.605Z,932.13
2017-09-09T04:07:32.518Z,932.1
2017-09-09T04:08:00.450Z,932.1
2017-09-09T04:08:28.608Z,932.1
2017-09-09T04:08:56.660Z,932.07
2017-09-09T04:09:24.593Z,932.07
2017-09-09T04:09:52.640Z,932.05
2017-09-09T04:10:20.766Z,932.07
2017-09-09T04:10:48.733Z,932.08
2017-09-09T04:11:16.915Z,932.06
2017-09-09T04:11:44.887Z,932.05
2017-09-09T04:12:12.729Z,932.05
2017-09-09T04:12:40.872Z,932.02
2017-09-09T04:13:08.939Z,932.04
2017-09-09T04:13:37.016Z,932.04
2017-09-09T04:14:04.882Z,932.05
2017-09-09T04:14:32.973Z,932.05
2017-09-09T04:15:01.164Z,932.03
2017-09-09T04:15:29.352Z,932.04
2017-09-09T04:15:57.278Z,932.03
2017-09-09T04:16:25.207Z,932.05
2017-09-09T04:16:53.387Z,932.02
2017-09-09T04:17:21.439Z,932.01
2017-09-09T04:17:49.609Z,932.01
2017-09-09T04:18:17.633Z,932.04
2017-09-09T04:18:45.783Z,931.99
2017-09-09T04:19:13.713Z,931.98
2017-09-09T04:19:41.775Z,932.01
2017-09-09T04:20:09.789Z,932
2017-09-09T04:20:37.855Z,932
2017-09-09T04:21:06.006Z,931.99
2017-09-09T04:21:34.153Z,931.98
2017-09-09T04:22:02.200Z,931.97
2017-09-09T04:22:30.058Z,932
2017-09-09T04:22:58.035Z,931.96
2017-09-09T04:23:25.830Z,931.96
2017-09-09T04:23:53.945Z,931.95
2017-09-09T04:24:21.876Z,931.93
2017-09-09T04:24:50.016Z,931.96
2017-09-09T04:25:18.380Z,931.93
2017-09-09T04:25:46.304Z,931.95
2017-09-09T04:26:14.356Z,931.92
2017-09-09T04:26:42.507Z,931.94
2017-09-09T04:27:10.671Z,931.96
2017-09-09T04:27:38.582Z,931.97
2017-09-09T04:28:06.577Z,931.96
2017-09-09T04:28:34.612Z,931.95
2017-09-09T04:29:02.739Z,931.95
2017-09-09T04:29:30.814Z,931.95
2017-09-09T04:29:58.982Z,931.97
2017-09-09T04:30:27.049Z,931.92
2017-09-09T04:30:55.015Z,931.94
2017-09-09T04:31:23.167Z,931.94
2017-09-09T04:31:51.315Z,931.92
2017-09-09T04:32:19.332Z,931.92
2017-09-09T04:32:47.480Z,931.91
2017-09-09T04:33:15.538Z,931.9
2017-09-09T04:33:43.708Z,931.91
2017-09-09T04:34:11.879Z,931.92
2017-09-09T04:34:39.806Z,931.93
2017-09-09T04:35:07.841Z,931.92
2017-09-09T04:35:35.989Z,931.89
2017-09-09T04:36:04.047Z,931.91
2017-09-09T04:36:32.125Z,931.88
2017-09-09T04:37:00.258Z,931.88
2017-09-09T04:37:28.277Z,931.89
2017-09-09T04:37:56.292Z,931.89
2017-09-09T04:38:24.432Z,931.87
2017-09-09T04:38:52.591Z,931.86
2017-09-09T04:39:20.614Z,931.86
2017-09-09T04:39:48.710Z,931.87
2017-09-09T04:40:16.839Z,931.85
2017-09-09T04:40:45.114Z,931.84
2017-09-09T04:41:13.289Z,931.83
2017-09-09T04:41:41.331Z,931.85
2017-09-09T04:42:09.400Z,931.83
2017-09-09T04:42:37.554Z,931.81
2017-09-09T04:43:05.712Z,931.86
2017-09-09T04:43:33.680Z,931.85
2017-09-09T04:44:01.854Z,931.82
2017-09-09T04:44:29.794Z,931.83
2017-09-09T04:44:57.930Z,931.82
2017-09-09T04:45:25.965Z,931.81
2017-09-09T04:45:54.274Z,931.83
2017-09-09T04:46:22.218Z,931.82
2017-09-09T04:46:50.275Z,931.82
2017-09-09T04:47:18.265Z,931.82
2017-09-09T04:47:46.430Z,931.85
2017-09-09T04:48:14.583Z,931.79
2017-09-09T04:48:42.629Z,931.82
2017-09-09T04:49:10.653Z,931.81
2017-09-09T04:49:38.834Z,931.8
2017-09-09T04:50:07.000Z,931.82
2017-09-09T04:50:35.276Z,931.78
2017-09-09T04:51:03.434Z,931.78
2017-09-09T04:51:31.465Z,931.79
2017-09-09T04:51:59.515Z,931.82
2017-09-09T04:52:27.558Z,931.81
2017-09-09T04:52:55.394Z,931.84
2017-09-09T04:53:23.571Z,931.82
2017-09-09T04:53:51.623Z,931.78
2017-09-09T04:54:19.572Z,931.78
2017-09-09T04:54:47.696Z,931.79
2017-09-09T04:55:15.771Z,931.79
2017-09-09T04:55:43.915Z,931.81
2017-09-09T04:56:12.080Z,931.76
2017-09-09T04:56:40.031Z,931.76
2017-09-09T04:57:07.964Z,931.76
2017-09-09T04:57:35.909Z,931.78
2017-09-09T04:58:03.738Z,931.73
2017-09-09T04:58:31.904Z,931.77
2017-09-09T04:58:59.948Z,931.75
2017-09-09T04:59:28.028Z,931.74
2017-09-09T04:59:55.869Z,931.77
2017-09-09T05:00:23.752Z,931.74
2017-09-09T05:00:51.996Z,931.76
2017-09-09T05:01:20.146Z,931.73
2017-09-09T05:01:48.283Z,931.71
2017-09-09T05:02:16.408Z,931.72
2017-09-09T05:02:44.350Z,931.73
2017-09-09T05:03:12.489Z,931.72
2017-09-09T05:03:40.416Z,931.7
2017-09-09T05:04:08.449Z,931.72
2017-09-09T05:04:36.445Z,931.67
2017-09-09T05:05:04.507Z,931.68
2017-09-09T05:05:32.603Z,931.66
2017-09-09T05:06:00.731Z,931.68
2017-09-09T05:06:28.883Z,931.65
2017-09-09T05:06:56.906Z,931.65
2017-09-09T05:07:25.023Z,931.67
2017-09-09T05:07:53.173Z,931.66
2017-09-09T05:08:21.206Z,931.63
2017-09-09T05:08:49.224Z,931.65
2017-09-09T05:09:17.161Z,931.66
2017-09-09T05:09:45.307Z,931.63
2017-09-09T05:10:13.236Z,931.62
2017-09-09T05:10:41.058Z,931.64
2017-09-09T05:11:09.174Z,931.63
2017-09-09T05:11:36.981Z,931.63
2017-09-09T05:12:04.973Z,931.63
2017-09-09T05:12:32.941Z,931.64
2017-09-09T05:13:00.976Z,931.63
2017-09-09T05:13:29.146Z,931.59
2017-09-09T05:13:57.269Z,931.62
2017-09-09T05:14:25.338Z,931.61
2017-09-09T05:14:53.281Z,931.61
2017-09-09T05:15:21.383Z,931.59
2017-09-09T05:15:49.686Z,931.56
2017-09-09T05:16:17.605Z,931.61
2017-09-09T05:16:45.766Z,931.58
2017-09-09T05:17:13.915Z,931.61
2017-09-09T05:17:42.083Z,931.58
2017-09-09T05:18:10.064Z,931.59
2017-09-09T05:18:37.918Z,931.58
2017-09-09T05:19:05.978Z,931.56
2017-09-09T05:19:34.109Z,931.55
2017-09-09T05:20:02.270Z,931.52
2017-09-09T05:20:30.272Z,931.56
2017-09-09T05:20:58.539Z,931.53
2017-09-09T05:21:26.586Z,931.55
2017-09-09T05:21:54.717Z,931.53
2017-09-09T05:22:22.876Z,931.51
2017-09-09T05:22:50.997Z,931.53
2017-09-09T05:23:19.120Z,931.54
2017-09-09T05:23:47.214Z,931.54
2017-09-09T05:24:15.356Z,931.54
2017-09-09T05:24:43.486Z,931.54
2017-09-09T05:25:11.645Z,931.52
2017-09-09T05:25:39.821Z,931.51
2017-09-09T05:26:08.072Z,931.49
2017-09-09T05:26:36.212Z,931.46
2017-09-09T05:27:04.324Z,931.48
2017-09-09T05:27:32.270Z,931.5
2017-09-09T05:28:00.211Z,931.49
2017-09-09T05:28:28.264Z,931.47
2017-09-09T05:28:56.360Z,931.45
2017-09-09T05:29:24.299Z,931.46
2017-09-09T05:29:52.300Z,931.46
2017-09-09T05:30:20.113Z,931.47
2017-09-09T05:30:48.209Z,931.43
2017-09-09T05:31:16.329Z,931.43
2017-09-09T05:31:44.489Z,931.44
2017-09-09T05:32:12.645Z,931.45
2017-09-09T05:32:40.478Z,931.43
2017-09-09T05:33:08.514Z,931.4
2017-09-09T05:33:36.663Z,931.4
2017-09-09T05:34:04.603Z,931.4
2017-09-09T05:34:32.606Z,931.41
2017-09-09T05:35:00.645Z,931.4
2017-09-09T05:35:28.695Z,931.41
2017-09-09T05:35:56.748Z,931.4
2017-09-09T05:36:24.962Z,931.36
2017-09-09T05:36:53.023Z,931.37
2017-09-09T05:37:21.067Z,931.37
2017-09-09T05:37:49.060Z,931.38
2017-09-09T05:38:16.971Z,931.36
2017-09-09T05:38:45.130Z,931.36
2017-09-09T05:39:13.273Z,931.33
2017-09-09T05:39:41.443Z,931.35
2017-09-09T05:40:09.483Z,931.3
2017-09-09T05:40:37.390Z,931.32
2017-09-09T05:41:05.595Z,931.3
2017-09-09T05:41:33.613Z,931.33
2017-09-09T05:42:01.557Z,931.34
2017-09-09T05:42:29.747Z,931.33
2017-09-09T05:42:57.902Z,931.33
2017-09-09T05:43:25.836Z,931.32
2017-09-09T05:43:53.947Z,931.32
2017-09-09T05:44:21.904Z,931.32
2017-09-09T05:44:49.825Z,931.33
2017-09-09T05:45:17.923Z,931.33
2017-09-09T05:45:45.991Z,931.33
2017-09-09T05:46:14.163Z,931.31
2017-09-09T05:46:42.271Z,931.33
2017-09-09T05:47:10.422Z,931.31
2017-09-09T05:47:38.372Z,931.32
2017-09-09T05:48:06.538Z,931.33
2017-09-09T05:48:34.376Z,931.34
2017-09-09T05:49:02.426Z,931.31
2017-09-09T05:49:30.378Z,931.32
2017-09-09T05:49:58.503Z,931.33
2017-09-09T05:50:26.545Z,931.29
2017-09-09T05:50:54.700Z,931.27